Terminal Aerodrome Forecast
Issued by NWS Jackson, KY

Home | Current Version | Previous Version | Text Only | Print | Product List | Glossary On
Versions: 1 2 3 4 5 6 7 8 9 10 11 12
417
FTUS43 KJKL 221723
TAFLOZ
TAF
KLOZ 221723Z 2218/2318 24010KT P6SM VCSH SCT050
     FM222000 24011KT P6SM VCTS BKN040CB
     FM230000 24006KT P6SM -SHRA BKN035
     FM230300 VRB05KT P6SM VCSH BKN030
     FM230700 VRB03KT P6SM OVC015
     FM230900 VRB03KT P6SM OVC008
     FM231400 VRB04KT P6SM BKN014
     FM231700 VRB04KT P6SM SCT025=

USA.gov is the U.S. government's official web portal to all federal, state and local government web resources and services.